Time;durP1;ratioP1;P1;durP2;ratioP2;P2;SDS_P1;SDS_P2;PMS_P1;PMS_P2;Temp;Humidity;BMP_temperature;BMP_pressure;BME280_temperature;BME280_humidity;BME280_pressure;Samples;Min_cycle;Max_cycle;Signal;HPM_P1;HPM_P2
2022/03/19 00:02:18;;;;;;;;;7.00;3.00;;;;;11.37;35.49;102922.34;5049508;28;45511;-60
2022/03/19 00:04:43;;;;;;;;;8.20;7.60;;;;;11.37;35.12;102921.50;5034181;28;45411;-60
2022/03/19 00:07:09;;;;;;;;;7.00;5.50;;;;;11.35;35.27;102916.16;5034514;28;45792;-58
2022/03/19 00:09:35;;;;;;;;;6.25;4.00;;;;;11.39;35.71;102923.03;5018241;28;46060;-61
2022/03/19 00:12:01;;;;;;;;;4.00;4.00;;;;;11.28;35.81;102884.00;5020061;28;45857;-58
2022/03/19 00:14:26;;;;;;;;;4.40;4.40;;;;;11.47;35.57;102915.91;5044847;28;46010;-60
2022/03/19 00:16:53;;;;;;;;;9.00;5.75;;;;;11.36;35.00;102911.50;5034302;28;45857;-61
2022/03/19 00:19:18;;;;;;;;;6.20;4.60;;;;;11.21;34.61;102912.13;5032299;28;46922;-61
2022/03/19 00:21:44;;;;;;;;;6.75;6.00;;;;;11.19;35.22;102911.44;5033850;28;45537;-60
2022/03/19 00:24:09;;;;;;;;;6.50;4.00;;;;;11.11;34.80;102916.91;5031471;28;45775;-60
2022/03/19 00:26:35;;;;;;;;;8.25;8.25;;;;;11.04;35.69;102893.84;5032008;28;45512;-61
2022/03/19 00:29:00;;;;;;;;;8.25;5.25;;;;;11.00;36.16;102875.94;5032245;28;47018;-61
2022/03/19 00:31:26;;;;;;;;;5.75;5.75;;;;;11.09;34.87;102897.81;5033747;28;45770;-60
2022/03/19 00:33:51;;;;;;;;;4.00;2.25;;;;;11.15;35.93;102900.94;5033660;28;45727;-60
2022/03/19 00:36:17;;;;;;;;;5.25;3.50;;;;;10.89;34.54;102858.69;5047584;28;45734;-60
2022/03/19 00:38:43;;;;;;;;;7.20;5.20;;;;;10.97;34.92;102893.63;5033592;28;45859;-61
2022/03/19 00:41:08;;;;;;;;;3.25;3.25;;;;;10.87;35.65;102880.00;5032305;28;45383;-60
2022/03/19 00:43:35;;;;;;;;;4.50;3.00;;;;;11.13;35.77;102912.09;5033366;28;45637;-60
2022/03/19 00:46:00;;;;;;;;;4.00;4.00;;;;;11.11;34.87;102906.75;5032017;28;45567;-59
2022/03/19 00:48:26;;;;;;;;;3.25;3.25;;;;;10.89;35.76;102871.59;5032015;28;46779;-58
2022/03/19 00:50:52;;;;;;;;;4.00;2.75;;;;;10.94;35.41;102881.06;5032258;28;45462;-59
2022/03/19 00:53:17;;;;;;;;;3.00;3.00;;;;;11.11;34.97;102909.50;5033684;28;45793;-60
2022/03/19 00:55:43;;;;;;;;;4.00;4.00;;;;;10.90;35.38;102881.56;5031240;28;45440;-60
2022/03/19 00:58:08;;;;;;;;;4.25;4.25;;;;;10.93;35.20;102893.06;5031509;28;47540;-60
2022/03/19 01:00:34;;;;;;;;;6.50;3.50;;;;;10.86;35.91;102897.50;5028379;28;45453;-62
2022/03/19 01:02:59;;;;;;;;;6.50;4.00;;;;;10.74;35.88;102891.41;5031593;28;45753;-60
2022/03/19 01:05:25;;;;;;;;;4.25;3.25;;;;;10.87;35.74;102898.38;5014516;28;45380;-60
2022/03/19 01:07:52;;;;;;;;;8.00;6.25;;;;;10.89;35.34;102891.66;5050237;28;47267;-62
2022/03/19 01:10:22;;;;;;;;;4.40;2.40;;;;;10.93;35.61;102890.34;5052175;28;45658;-62
2022/03/19 01:12:48;;;;;;;;;3.80;3.40;;;;;10.67;35.61;102855.47;4995587;28;47845;-62
2022/03/19 01:15:15;;;;;;;;;4.00;3.00;;;;;10.89;35.06;102893.56;5035843;28;45507;-62
2022/03/19 01:17:40;;;;;;;;;4.20;3.60;;;;;10.85;36.05;102888.38;5036891;28;46634;-61
2022/03/19 01:20:06;;;;;;;;;4.00;3.00;;;;;10.77;35.52;102888.34;5036928;28;46425;-62
2022/03/19 01:22:32;;;;;;;;;5.00;4.50;;;;;10.77;36.19;102888.34;5036133;28;45415;-61
2022/03/19 01:25:03;;;;;;;;;3.40;2.80;;;;;10.66;35.63;102885.84;5037154;28;45510;-61
2022/03/19 01:27:29;;;;;;;;;3.00;3.00;;;;;10.63;35.92;102880.69;5037205;28;45677;-61
2022/03/19 01:29:55;;;;;;;;;3.20;3.20;;;;;10.70;35.91;102887.25;5035592;28;45345;-61
2022/03/19 01:32:20;;;;;;;;;4.50;3.00;;;;;10.31;35.68;102839.91;5036309;28;45394;-62
2022/03/19 01:34:46;;;;;;;;;3.50;3.00;;;;;10.53;35.75;102886.25;5035762;28;45658;-61
2022/03/19 01:37:12;;;;;;;;;5.75;2.75;;;;;10.43;36.65;102879.00;5037047;28;46208;-61
2022/03/19 01:39:37;;;;;;;;;7.75;4.00;;;;;10.41;36.37;102886.47;5036979;28;45435;-61
2022/03/19 01:42:04;;;;;;;;;3.50;3.00;;;;;10.19;36.40;102843.06;5037274;28;45342;-61
2022/03/19 01:44:29;;;;;;;;;2.60;2.00;;;;;10.41;36.21;102872.75;5037032;28;45403;-61
2022/03/19 01:47:10;;;;;;;;;6.50;6.00;;;;;10.26;36.28;102846.91;5035392;28;45433;-61
2022/03/19 01:49:36;;;;;;;;;6.20;4.20;;;;;10.16;35.78;102831.34;5036823;28;45291;-61
2022/03/19 01:52:02;;;;;;;;;2.80;2.80;;;;;10.42;37.30;102869.00;5036953;28;45305;-62
2022/03/19 01:54:37;;;;;;;;;5.25;5.25;;;;;10.47;36.37;102871.31;5036858;28;45416;-62
2022/03/19 01:57:03;;;;;;;;;3.00;3.00;;;;;10.54;36.23;102871.50;5034875;28;45403;-61
2022/03/19 01:59:34;;;;;;;;;4.00;4.00;;;;;10.54;36.01;102868.75;5036332;28;45434;-61
2022/03/19 02:02:01;;;;;;;;;5.80;4.20;;;;;10.30;36.29;102829.94;5036792;28;45413;-61
2022/03/19 02:04:27;;;;;;;;;5.60;3.60;;;;;10.47;36.48;102870.44;5035180;28;45322;-61
2022/03/19 02:06:52;;;;;;;;;4.00;4.00;;;;;10.27;36.58;102834.88;5034793;28;45395;-61
2022/03/19 02:09:18;;;;;;;;;8.00;4.00;;;;;10.47;36.76;102862.19;5018403;28;45319;-61
2022/03/19 02:11:44;;;;;;;;;7.00;6.00;;;;;10.24;36.56;102810.53;5034732;28;45632;-61
2022/03/19 02:14:09;;;;;;;;;7.50;6.00;;;;;10.25;36.42;102850.66;5035943;28;45365;-61
2022/03/19 02:16:35;;;;;;;;;8.00;4.00;;;;;10.07;36.58;102818.59;5034654;28;45694;-60
2022/03/19 02:19:00;;;;;;;;;6.00;5.50;;;;;10.23;36.89;102861.78;5034862;28;45463;-60
2022/03/19 02:21:26;;;;;;;;;4.00;4.00;;;;;10.34;36.70;102859.84;5034799;28;45393;-60
2022/03/19 02:26:45;;;;;;;;;4.00;4.00;;;;;10.38;36.96;102850.25;5035446;28;45391;-61
2022/03/19 02:29:11;;;;;;;;;7.60;3.60;;;;;10.43;36.43;102853.41;5035855;28;45331;-61
2022/03/19 02:31:40;;;;;;;;;8.25;7.00;;;;;10.16;37.22;102797.59;5034222;28;45532;-61
2022/03/19 02:34:09;;;;;;;;;7.00;5.80;;;;;10.14;37.68;102814.19;5036171;28;45829;-61
2022/03/19 02:36:36;;;;;;;;;7.40;4.80;;;;;10.36;37.22;102836.66;5035248;28;46089;-61
2022/03/19 02:39:09;;;;;;;;;8.00;6.00;;;;;10.27;37.13;102821.16;5035485;28;45378;-61
2022/03/19 02:41:35;;;;;;;;;5.60;4.80;;;;;10.37;37.39;102826.56;5035658;28;45413;-61
2022/03/19 02:44:01;;;;;;;;;10.25;5.50;;;;;10.41;37.88;102823.34;5036134;28;45574;-61
2022/03/19 02:46:47;;;;;;;;;4.00;4.00;;;;;10.37;37.60;102824.69;5035298;28;45515;-60
2022/03/19 02:49:14;;;;;;;;;8.20;7.00;;;;;10.00;37.03;102787.31;5035520;28;45469;-61
2022/03/19 02:51:40;;;;;;;;;7.00;6.80;;;;;10.24;38.42;102824.25;5035232;28;45406;-61
2022/03/19 02:54:09;;;;;;;;;8.00;6.40;;;;;10.15;38.34;102804.09;5035624;28;45553;-61
2022/03/19 02:56:35;;;;;;;;;10.60;6.00;;;;;10.09;37.58;102789.09;5034955;28;45574;-60
2022/03/19 02:59:06;;;;;;;;;8.40;7.40;;;;;10.12;37.66;102810.75;5035791;28;45263;-61
2022/03/19 03:01:31;;;;;;;;;11.00;9.00;;;;;10.07;37.85;102818.59;5035669;28;45395;-62
2022/03/19 03:03:57;;;;;;;;;6.25;5.00;;;;;9.90;37.81;102776.44;5008733;28;46613;-61
2022/03/19 03:06:22;;;;;;;;;8.00;6.25;;;;;9.93;38.65;102791.72;5031253;28;46198;-60
2022/03/19 03:08:48;;;;;;;;;8.00;8.00;;;;;9.69;37.93;102752.06;5031700;28;45421;-61
2022/03/19 03:11:14;;;;;;;;;9.00;8.00;;;;;9.68;38.15;102755.84;5035844;28;45793;-61
2022/03/19 03:13:39;;;;;;;;;12.50;11.50;;;;;9.67;37.39;102756.84;5035574;28;45326;-61
2022/03/19 03:16:05;;;;;;;;;9.00;7.50;;;;;9.89;37.98;102800.25;5035290;28;46114;-62
2022/03/19 03:18:30;;;;;;;;;8.25;7.25;;;;;9.65;38.72;102765.22;5017619;28;45454;-61
2022/03/19 03:20:58;;;;;;;;;12.75;8.75;;;;;9.93;39.45;102802.69;5033564;28;45473;-60
2022/03/19 03:23:23;;;;;;;;;8.40;8.40;;;;;9.92;38.76;102799.06;5035622;28;45563;-61
2022/03/19 03:25:49;;;;;;;;;12.25;7.50;;;;;9.65;39.23;102762.47;5033805;28;46296;-60
2022/03/19 03:28:14;;;;;;;;;12.25;6.25;;;;;9.72;38.42;102795.66;5034271;28;45392;-62
2022/03/19 03:30:40;;;;;;;;;12.50;11.00;;;;;9.83;39.78;102797.28;5039092;28;45361;-63
2022/03/19 03:33:05;;;;;;;;;10.25;8.00;;;;;9.79;38.69;102807.72;5038948;28;45490;-62
2022/03/19 03:35:31;;;;;;;;;11.50;9.75;;;;;9.69;39.12;102780.38;5038846;28;46373;-62
2022/03/19 03:37:56;;;;;;;;;11.25;9.00;;;;;9.73;39.37;102792.72;5038525;28;45329;-62
2022/03/19 03:40:22;;;;;;;;;8.75;7.00;;;;;9.65;39.69;102767.97;5038978;28;45346;-62
2022/03/19 03:42:47;;;;;;;;;11.50;11.25;;;;;9.75;39.94;102778.88;5037632;28;45362;-63
2022/03/19 03:45:13;;;;;;;;;14.75;9.75;;;;;9.82;38.87;102784.59;5037058;28;47645;-62
2022/03/19 03:47:39;;;;;;;;;9.75;7.50;;;;;9.71;39.12;102778.31;5038375;28;45350;-61
2022/03/19 03:50:04;;;;;;;;;11.00;9.75;;;;;9.66;39.49;102769.69;5038846;28;45316;-62
2022/03/19 03:52:30;;;;;;;;;13.75;10.25;;;;;9.62;39.43;102760.06;5053977;28;45593;-62
2022/03/19 03:54:56;;;;;;;;;16.00;12.00;;;;;9.73;38.97;102789.13;5036786;28;45433;-63
2022/03/19 03:57:22;;;;;;;;;13.20;12.60;;;;;9.67;40.57;102787.03;5038159;28;45405;-62
2022/03/19 03:59:50;;;;;;;;;14.00;12.00;;;;;9.70;39.19;102794.91;5038697;28;45409;-62
2022/03/19 04:02:16;;;;;;;;;16.40;11.60;;;;;9.72;39.42;102792.91;5038362;28;45327;-62
2022/03/19 04:04:41;;;;;;;;;8.25;7.75;;;;;9.64;39.62;102782.69;5038304;28;46025;-62
2022/03/19 04:07:07;;;;;;;;;14.25;13.75;;;;;9.57;40.50;102790.69;5037924;28;45386;-61
2022/03/19 04:09:32;;;;;;;;;14.50;11.25;;;;;9.51;40.67;102788.56;5038205;28;45330;-62
2022/03/19 04:12:03;;;;;;;;;10.50;8.50;;;;;9.51;40.26;102796.81;5038112;28;45548;-61
2022/03/19 04:14:29;;;;;;;;;15.00;11.60;;;;;9.57;40.74;102787.97;5037686;28;46603;-60
2022/03/19 04:16:55;;;;;;;;;13.60;10.20;;;;;9.66;39.93;102790.78;5038129;28;45401;-61
2022/03/19 04:19:20;;;;;;;;;9.75;9.75;;;;;9.59;40.33;102793.25;5038319;28;45336;-60
2022/03/19 04:21:46;;;;;;;;;14.00;11.75;;;;;9.59;40.80;102779.56;5038373;28;45443;-61
2022/03/19 04:24:11;;;;;;;;;12.75;11.25;;;;;9.65;40.70;102778.94;5037729;28;45374;-61
2022/03/19 04:26:37;;;;;;;;;6.00;6.00;;;;;9.60;40.74;102787.63;5037860;28;45369;-60
2022/03/19 04:29:02;;;;;;;;;16.75;15.00;;;;;9.54;40.37;102785.50;5038250;28;45314;-61
2022/03/19 04:31:28;;;;;;;;;14.25;12.75;;;;;8.97;41.24;102698.94;5038244;28;45350;-64
2022/03/19 04:33:53;;;;;;;;;11.25;10.00;;;;;9.52;40.91;102779.34;5037881;28;45889;-61
2022/03/19 04:36:32;;;;;;;;;21.75;14.50;;;;;9.55;41.22;102794.63;5037839;28;45273;-61
2022/03/19 04:39:01;;;;;;;;;16.80;13.60;;;;;9.40;42.20;102792.38;5037715;28;45424;-61
2022/03/19 04:41:27;;;;;;;;;11.80;11.80;;;;;9.45;41.76;102792.78;5051944;28;45393;-61
2022/03/19 04:43:52;;;;;;;;;17.40;13.40;;;;;9.17;42.27;102753.56;5037716;28;45348;-61
2022/03/19 04:46:18;;;;;;;;;18.50;12.50;;;;;9.36;41.32;102788.22;5037541;28;45314;-60
2022/03/19 04:48:45;;;;;;;;;14.00;13.40;;;;;9.31;42.49;102788.69;5036720;28;45412;-61
2022/03/19 04:51:15;;;;;;;;;13.80;12.60;;;;;9.32;42.48;102784.94;5036398;28;45369;-60
2022/03/19 04:53:41;;;;;;;;;23.20;17.60;;;;;9.19;42.59;102779.81;5037342;28;45747;-61
2022/03/19 04:56:06;;;;;;;;;23.80;19.20;;;;;9.25;43.15;102777.47;5069728;28;45298;-61
2022/03/19 04:58:33;;;;;;;;;22.50;17.50;;;;;9.25;42.28;102775.63;5052631;28;45465;-61
2022/03/19 05:00:58;;;;;;;;;21.40;14.80;;;;;9.09;42.77;102771.63;5053164;28;45531;-61
2022/03/19 05:03:25;;;;;;;;;21.75;14.75;;;;;9.16;43.55;102776.50;5009828;28;45835;-62
2022/03/19 05:05:50;;;;;;;;;20.60;17.00;;;;;9.20;43.18;102775.19;5014088;28;45461;-62
2022/03/19 05:08:17;;;;;;;;;18.00;13.75;;;;;9.12;43.08;102777.84;5036863;28;45434;-62
2022/03/19 05:13:27;;;;;;;;;19.60;15.80;;;;;9.21;42.61;102775.06;5036621;28;45391;-62
2022/03/19 05:15:53;;;;;;;;;19.00;16.75;;;;;9.22;42.71;102775.91;5036819;28;45493;-62
2022/03/19 05:18:19;;;;;;;;;18.00;17.00;;;;;8.49;43.68;102663.38;5036745;28;45413;-63
2022/03/19 05:20:45;;;;;;;;;21.20;18.60;;;;;9.12;43.41;102783.31;5037002;28;45306;-61
2022/03/19 05:23:11;;;;;;;;;26.00;20.75;;;;;9.03;43.31;102774.97;5036403;28;45386;-60
2022/03/19 05:25:36;;;;;;;;;20.50;20.50;;;;;9.13;43.50;102779.56;5036614;28;45299;-61
2022/03/19 05:28:02;;;;;;;;;21.75;18.00;;;;;9.08;43.74;102782.78;5069191;28;45429;-62
2022/03/19 05:30:28;;;;;;;;;20.20;17.80;;;;;9.09;43.89;102776.28;5036902;28;45382;-62
2022/03/19 05:32:53;;;;;;;;;23.00;16.00;;;;;9.09;44.80;102782.59;5051799;28;48479;-61
2022/03/19 05:35:19;;;;;;;;;28.00;21.00;;;;;9.08;43.83;102783.63;5069014;28;45723;-60
2022/03/19 05:37:46;;;;;;;;;25.25;19.00;;;;;8.99;44.88;102783.66;5035014;28;45438;-61
2022/03/19 05:40:12;;;;;;;;;27.20;21.40;;;;;9.05;44.53;102789.41;5069254;28;45399;-61
2022/03/19 05:42:38;;;;;;;;;35.75;27.25;;;;;8.96;44.95;102765.66;5036243;28;47606;-62
2022/03/19 05:45:04;;;;;;;;;28.50;23.75;;;;;8.76;45.11;102729.31;5036278;28;45351;-62
2022/03/19 05:47:29;;;;;;;;;28.25;21.75;;;;;9.16;44.16;102777.38;5052291;28;45472;-61
2022/03/19 05:49:55;;;;;;;;;30.25;23.25;;;;;9.04;45.03;102782.22;5036552;28;45402;-61
2022/03/19 05:52:20;;;;;;;;;26.25;22.75;;;;;8.82;45.49;102750.59;5035729;28;45409;-61
2022/03/19 05:54:46;;;;;;;;;26.75;20.00;;;;;9.03;45.16;102783.19;5036038;28;45364;-61
2022/03/19 05:57:11;;;;;;;;;34.25;24.75;;;;;9.09;44.75;102781.75;5068530;28;45398;-61
2022/03/19 05:59:37;;;;;;;;;24.50;22.00;;;;;9.08;45.10;102786.34;5036458;28;45543;-61
2022/03/19 06:02:05;;;;;;;;;29.00;23.75;;;;;9.12;44.80;102783.31;5036268;28;46050;-60
2022/03/19 06:04:31;;;;;;;;;28.20;23.40;;;;;9.07;45.32;102783.75;5034875;28;45401;-61
2022/03/19 06:06:57;;;;;;;;;33.25;22.50;;;;;9.02;45.48;102775.16;5035797;28;45326;-60
2022/03/19 06:09:22;;;;;;;;;32.25;28.75;;;;;8.70;45.98;102755.38;5035033;28;45386;-61
2022/03/19 06:11:48;;;;;;;;;32.00;26.25;;;;;8.91;46.01;102779.81;5035670;28;45621;-61
2022/03/19 06:14:13;;;;;;;;;31.00;26.00;;;;;8.68;46.15;102738.25;5051351;28;45676;-61
2022/03/19 06:16:39;;;;;;;;;26.75;25.50;;;;;8.85;46.62;102777.66;5036075;28;45560;-60
2022/03/19 06:19:04;;;;;;;;;27.25;20.75;;;;;8.91;46.23;102788.03;5035761;28;45550;-59
2022/03/19 06:21:30;;;;;;;;;35.50;32.25;;;;;8.97;46.37;102782.97;5068206;28;47235;-61
2022/03/19 06:23:55;;;;;;;;;26.25;22.50;;;;;9.03;45.89;102783.19;5050870;28;45377;-61
2022/03/19 06:26:23;;;;;;;;;39.25;33.50;;;;;9.11;46.34;102787.94;5036088;28;45402;-61
2022/03/19 06:28:51;;;;;;;;;32.80;30.60;;;;;9.03;46.42;102791.41;5034694;28;45565;-60
2022/03/19 06:31:17;;;;;;;;;30.60;28.60;;;;;9.07;46.50;102795.59;5035799;28;46803;-61
2022/03/19 06:33:42;;;;;;;;;32.25;27.25;;;;;9.09;46.05;102800.94;5035610;28;45401;-61
2022/03/19 06:38:52;;;;;;;;;38.80;32.40;;;;;8.86;47.63;102795.81;5035709;28;45359;-61
2022/03/19 06:41:18;;;;;;;;;39.50;31.75;;;;;8.68;46.95;102763.78;5035597;28;45667;-63
2022/03/19 06:43:43;;;;;;;;;29.00;24.50;;;;;8.97;47.36;102788.44;5035404;28;45583;-61
2022/03/19 06:46:09;;;;;;;;;42.25;34.00;;;;;8.74;47.29;102764.16;5035422;28;45429;-61
2022/03/19 06:48:35;;;;;;;;;40.25;32.75;;;;;8.92;47.68;102783.41;5035532;28;45586;-61
2022/03/19 06:51:00;;;;;;;;;43.00;35.75;;;;;9.04;47.32;102784.94;5035411;28;45892;-62
2022/03/19 06:53:26;;;;;;;;;44.00;39.25;;;;;9.11;46.69;102787.94;5035239;28;45377;-61
2022/03/19 06:55:52;;;;;;;;;42.25;35.50;;;;;9.07;47.22;102792.84;5034429;28;45580;-61
2022/03/19 06:58:21;;;;;;;;;40.00;36.00;;;;;8.94;47.76;102781.38;5026984;28;45295;-61
2022/03/19 07:00:47;;;;;;;;;30.80;25.60;;;;;9.09;47.28;102784.50;5033548;28;45619;-60
2022/03/19 07:03:12;;;;;;;;;47.25;36.50;;;;;9.12;47.88;102788.81;5029336;28;45314;-61
2022/03/19 07:05:38;;;;;;;;;35.25;31.25;;;;;9.11;48.02;102785.19;5035432;28;45460;-60
2022/03/19 07:08:07;;;;;;;;;41.50;32.75;;;;;9.13;47.76;102785.06;5013788;28;45652;-61
2022/03/19 07:10:36;;;;;;;;;44.40;38.80;;;;;9.05;47.75;102791.28;5030534;28;46606;-61
2022/03/19 07:13:02;;;;;;;;;41.40;34.00;;;;;8.95;48.17;102774.88;5035023;28;45472;-60
2022/03/19 07:15:28;;;;;;;;;51.25;39.75;;;;;8.95;48.75;102767.53;5033968;28;45493;-61
2022/03/19 07:17:55;;;;;;;;;37.75;35.25;;;;;9.14;47.81;102789.50;5031756;28;45432;-62
2022/03/19 07:20:21;;;;;;;;;48.20;39.20;;;;;9.17;47.78;102775.50;5033904;28;46717;-59
2022/03/19 07:22:59;;;;;;;;;45.50;39.25;;;;;9.18;48.30;102788.19;5034866;28;45367;-60
2022/03/19 07:25:29;;;;;;;;;53.00;41.40;;;;;9.02;48.53;102743.13;5067258;28;45409;-61
2022/03/19 07:27:56;;;;;;;;;45.40;37.00;;;;;9.11;48.04;102752.31;5035479;28;45430;-60
2022/03/19 07:30:21;;;;;;;;;47.40;38.00;;;;;9.34;48.24;102780.16;5050793;28;45329;-60
2022/03/19 07:32:47;;;;;;;;;49.25;40.00;;;;;9.30;47.89;102780.63;5033771;28;45434;-59
2022/03/19 07:35:13;;;;;;;;;51.75;42.00;;;;;9.31;47.89;102782.34;5034915;28;45339;-62
2022/03/19 07:37:40;;;;;;;;;56.50;44.25;;;;;9.18;48.96;102783.56;5035372;28;45676;-60
2022/03/19 07:40:07;;;;;;;;;48.60;39.60;;;;;9.18;48.36;102775.34;5034949;28;45694;-61
2022/03/19 07:42:32;;;;;;;;;50.20;43.20;;;;;9.26;48.38;102780.06;5067242;28;45527;-61
2022/03/19 07:44:58;;;;;;;;;43.50;38.50;;;;;9.35;48.73;102786.50;5034282;28;45819;-59
2022/03/19 07:47:23;;;;;;;;;54.50;42.00;;;;;9.22;48.22;102774.03;5035191;28;45574;-60
2022/03/19 07:49:49;;;;;;;;;53.75;39.75;;;;;8.77;49.73;102709.13;5034653;28;45480;-62
2022/03/19 07:52:14;;;;;;;;;53.00;38.25;;;;;9.29;49.16;102782.50;5050001;28;45449;-61
2022/03/19 07:54:40;;;;;;;;;59.00;43.00;;;;;9.33;49.00;102786.66;5034701;28;45393;-61
2022/03/19 07:57:06;;;;;;;;;57.75;44.00;;;;;9.42;48.19;102782.13;5035016;28;45477;-63
2022/03/19 07:59:32;;;;;;;;;59.00;46.60;;;;;9.43;49.12;102789.34;5034316;28;45656;-61
2022/03/19 08:01:58;;;;;;;;;56.60;42.40;;;;;9.27;49.37;102754.38;5034724;28;45370;-63
2022/03/19 08:04:23;;;;;;;;;58.75;42.75;;;;;9.28;49.76;102747.88;5049958;28;45245;-62
2022/03/19 08:06:53;;;;;;;;;55.75;47.00;;;;;9.07;49.13;102713.41;5034848;28;45573;-63
2022/03/19 08:09:19;;;;;;;;;58.00;44.40;;;;;9.52;49.57;102778.47;5049592;28;45817;-63
2022/03/19 08:11:45;;;;;;;;;58.00;46.20;;;;;9.53;49.34;102763.72;5034208;28;45363;-62
2022/03/19 08:14:14;;;;;;;;;57.50;46.50;;;;;9.40;48.69;102732.06;5034458;28;45322;-63
2022/03/19 08:16:43;;;;;;;;;61.00;48.50;;;;;9.55;49.24;102745.28;5069174;28;45657;-63
2022/03/19 08:19:11;;;;;;;;;58.25;45.75;;;;;9.62;49.70;102768.28;5037497;28;46485;-63
2022/03/19 08:21:36;;;;;;;;;62.00;45.20;;;;;9.72;48.72;102768.22;5036360;28;45351;-62
2022/03/19 08:24:02;;;;;;;;;60.75;46.00;;;;;9.71;49.09;102770.09;5037878;28;45417;-62
2022/03/19 08:26:28;;;;;;;;;67.00;49.00;;;;;9.73;49.87;102772.69;5038240;28;45501;-63
2022/03/19 08:28:53;;;;;;;;;65.00;48.50;;;;;9.60;48.86;102745.63;5035973;28;46600;-62
2022/03/19 08:31:19;;;;;;;;;63.25;49.00;;;;;9.75;49.06;102752.31;5037894;28;45271;-62
2022/03/19 08:33:44;;;;;;;;;59.75;46.75;;;;;9.92;49.78;102754.34;5037577;28;45283;-62
2022/03/19 08:36:10;;;;;;;;;61.75;48.75;;;;;9.97;49.23;102760.22;5037787;28;45589;-62
2022/03/19 08:41:19;;;;;;;;;64.00;50.60;;;;;9.86;48.60;102729.25;5037486;28;45364;-61
2022/03/19 08:43:45;;;;;;;;;63.25;48.00;;;;;10.02;48.82;102758.72;5036317;28;45234;-62
2022/03/19 08:46:11;;;;;;;;;62.00;49.00;;;;;9.93;49.32;102756.91;5036408;28;45654;-63
2022/03/19 08:48:37;;;;;;;;;68.25;50.25;;;;;9.83;48.41;102725.97;5036086;28;46940;-62
2022/03/19 08:53:47;;;;;;;;;69.00;52.00;;;;;10.15;48.84;102752.81;5037080;28;45511;-62
2022/03/19 08:56:12;;;;;;;;;67.50;49.25;;;;;10.26;48.03;102751.69;5019091;28;45672;-61
2022/03/19 08:58:38;;;;;;;;;64.50;48.25;;;;;10.34;48.84;102750.03;4975543;28;47421;-62
2022/03/19 09:01:04;;;;;;;;;66.75;51.00;;;;;10.35;48.71;102751.75;5035498;28;45393;-61
2022/03/19 09:03:29;;;;;;;;;68.50;52.50;;;;;10.37;48.46;102755.19;5037313;28;45405;-62
2022/03/19 09:05:55;;;;;;;;;67.50;52.00;;;;;10.31;48.47;102745.72;5069672;28;45405;-62
2022/03/19 09:08:21;;;;;;;;;66.00;50.75;;;;;10.45;48.01;102741.53;5037130;28;46408;-62
2022/03/19 09:10:46;;;;;;;;;78.33;60.33;;;;;10.48;47.67;102740.38;5036814;28;45461;-63
2022/03/19 09:13:12;;;;;;;;;68.75;54.00;;;;;10.58;47.58;102743.88;5037012;28;45686;-61
2022/03/19 09:15:37;;;;;;;;;60.00;48.50;;;;;10.71;47.73;102743.41;5047172;28;45380;-59
2022/03/19 09:18:05;;;;;;;;;67.25;49.25;;;;;10.82;48.12;102725.78;5030759;28;45568;-61
2022/03/19 09:20:31;;;;;;;;;64.80;51.20;;;;;11.03;46.26;102740.97;5047424;28;45531;-61
2022/03/19 09:22:57;;;;;;;;;51.75;42.50;;;;;10.88;46.17;102707.78;5032750;28;45484;-64
2022/03/19 09:25:22;;;;;;;;;61.75;47.50;;;;;11.14;45.99;102735.16;5048090;28;45472;-64
2022/03/19 09:27:48;;;;;;;;;61.25;47.50;;;;;10.92;45.41;102699.03;5031753;28;45526;-64
2022/03/19 09:30:14;;;;;;;;;58.50;46.00;;;;;11.15;45.23;102741.53;5046291;28;45698;-62
2022/03/19 09:32:39;;;;;;;;;60.50;49.25;;;;;11.17;44.78;102729.34;5031373;28;45957;-63
2022/03/19 09:35:05;;;;;;;;;58.75;47.25;;;;;11.29;44.92;102731.75;5030952;28;45665;-64
2022/03/19 09:37:31;;;;;;;;;61.50;46.75;;;;;11.38;45.20;102736.28;5032066;28;46172;-63
2022/03/19 09:39:58;;;;;;;;;59.25;48.25;;;;;11.38;44.88;102722.53;5032647;28;45500;-62
2022/03/19 09:42:24;;;;;;;;;60.00;48.25;;;;;11.58;44.32;102745.06;5030545;28;45530;-63
2022/03/19 09:44:49;;;;;;;;;65.75;49.00;;;;;11.63;44.14;102728.06;5013248;28;45475;-64
2022/03/19 09:47:15;;;;;;;;;61.50;46.00;;;;;11.60;44.49;102690.75;5030260;28;46295;-62
2022/03/19 09:49:41;;;;;;;;;64.25;48.25;;;;;11.70;43.78;102698.84;5030842;28;45814;-61
2022/03/19 09:52:06;;;;;;;;;62.25;49.25;;;;;11.92;43.47;102727.53;5031780;28;45899;-65
2022/03/19 09:54:32;;;;;;;;;61.50;50.00;;;;;11.95;43.90;102728.25;5029470;28;45583;-61
2022/03/19 09:56:58;;;;;;;;;65.00;48.75;;;;;12.00;43.67;102712.91;5000107;27;46526;-65
2022/03/19 09:59:24;;;;;;;;;65.50;48.25;;;;;12.14;43.80;102716.91;5002272;28;46061;-63
2022/03/19 10:01:51;;;;;;;;;62.00;46.40;;;;;12.20;42.19;102713.47;5011156;28;45540;-67
2022/03/19 10:04:20;;;;;;;;;64.00;49.00;;;;;12.12;42.64;102696.09;4994315;28;45557;-62
2022/03/19 10:09:41;;;;;;;;;65.40;47.00;;;;;12.44;42.42;102705.31;5031714;28;45393;-64
2022/03/19 10:12:11;;;;;;;;;58.20;45.80;;;;;12.58;42.12;102709.22;5014282;28;45480;-63
2022/03/19 10:14:36;;;;;;;;;59.50;46.50;;;;;12.69;41.23;102699.69;5064585;28;45845;-62
2022/03/19 10:17:04;;;;;;;;;59.75;48.25;;;;;12.77;40.78;102705.19;5031459;28;45401;-63
2022/03/19 10:19:29;;;;;;;;;62.60;49.00;;;;;12.84;41.26;102697.94;5030289;28;45753;-62
2022/03/19 10:21:55;;;;;;;;;64.25;47.00;;;;;12.95;40.78;102690.28;5031533;28;45858;-62
2022/03/19 10:24:22;;;;;;;;;62.50;48.75;;;;;13.04;40.37;102699.38;5059204;27;46186;-65
2022/03/19 10:26:48;;;;;;;;;58.50;42.00;;;;;13.12;40.20;102693.81;5011692;28;46689;-63
2022/03/19 10:29:14;;;;;;;;;64.75;48.50;;;;;13.20;40.30;102690.16;5043334;28;45511;-61
2022/03/19 10:31:47;;;;;;;;;61.20;49.40;;;;;13.07;39.73;102661.28;5022841;28;45407;-63
2022/03/19 10:34:13;;;;;;;;;60.25;45.00;;;;;13.37;39.75;102680.75;5030109;28;45576;-61
2022/03/19 10:36:40;;;;;;;;;66.75;49.50;;;;;13.10;39.65;102633.38;5031155;28;46589;-63
2022/03/19 10:39:12;;;;;;;;;57.20;43.00;;;;;13.55;38.90;102682.34;5062055;28;45494;-62
2022/03/19 10:41:38;;;;;;;;;61.60;46.00;;;;;13.41;38.68;102653.66;5031375;28;45736;-65
2022/03/19 10:44:19;;;;;;;;;61.00;46.25;;;;;13.62;39.27;102676.97;5062455;27;45846;-62
2022/03/19 10:46:55;;;;;;;;;60.00;45.60;;;;;13.64;38.57;102650.03;5029282;28;45890;-63
2022/03/19 10:49:23;;;;;;;;;62.40;45.40;;;;;13.87;38.31;102662.97;5031126;28;45471;-65
2022/03/19 10:51:53;;;;;;;;;50.80;40.20;;;;;13.66;38.44;102614.88;5031287;28;45528;-63
2022/03/19 10:54:19;;;;;;;;;58.60;47.00;;;;;14.01;37.50;102659.34;5029956;28;45496;-64
2022/03/19 10:56:45;;;;;;;;;53.75;43.25;;;;;13.82;37.08;102622.09;5044735;28;46149;-64
2022/03/19 10:59:11;;;;;;;;;52.80;42.60;;;;;13.98;36.96;102639.56;5031039;28;46069;-64
2022/03/19 11:01:37;;;;;;;;;56.75;45.75;;;;;14.25;37.42;102653.75;5030167;28;45501;-64
2022/03/19 11:04:03;;;;;;;;;56.00;44.50;;;;;14.37;35.77;102660.53;5029904;28;45527;-61
2022/03/19 11:06:32;;;;;;;;;55.25;44.75;;;;;14.17;36.22;102618.81;5011693;28;45933;-62
2022/03/19 11:09:01;;;;;;;;;56.20;44.00;;;;;14.29;36.58;102620.03;5029911;28;45776;-63
2022/03/19 11:11:39;;;;;;;;;56.60;41.20;;;;;14.59;36.60;102646.78;5030028;28;45951;-61
2022/03/19 11:14:04;;;;;;;;;56.75;43.75;;;;;14.73;35.87;102640.38;5045340;28;45452;-61
2022/03/19 11:16:34;;;;;;;;;56.50;44.75;;;;;14.66;35.82;102600.75;5017036;28;45831;-63
2022/03/19 11:19:00;;;;;;;;;52.20;40.20;;;;;14.96;35.87;102621.97;5028552;28;46188;-61
2022/03/19 11:21:26;;;;;;;;;54.00;43.00;;;;;15.11;35.12;102635.75;5030022;28;45735;-61
2022/03/19 11:23:56;;;;;;;;;55.60;43.00;;;;;15.18;34.77;102633.91;5029890;28;45568;-64
2022/03/19 11:26:24;;;;;;;;;53.80;42.40;;;;;15.28;34.27;102628.91;5030905;28;45801;-62
2022/03/19 11:28:50;;;;;;;;;50.60;39.20;;;;;15.14;34.32;102599.38;4997792;28;45411;-64
2022/03/19 11:31:29;;;;;;;;;54.00;43.00;;;;;15.47;34.56;102629.28;5014033;28;45543;-63
2022/03/19 11:34:13;;;;;;;;;57.60;44.00;;;;;15.59;34.09;102633.22;5045095;28;45523;-62